Time;durP1;ratioP1;P1;durP2;ratioP2;P2;SDS_P1;SDS_P2;PMS_P1;PMS_P2;Temp;Humidity;BMP_temperature;BMP_pressure;BME280_temperature;BME280_humidity;BME280_pressure;Samples;Min_cycle;Max_cycle;Signal;HPM_P1;HPM_P2
2022/05/18 00:00:48;;;;;;;9.68;6.05;;;17.60;99.90;;;;;;5046720;28;20092;-84
2022/05/18 00:03:17;;;;;;;9.05;5.80;;;17.50;99.90;;;;;;5027563;28;20098;-81
2022/05/18 00:05:44;;;;;;;9.77;5.80;;;17.50;99.90;;;;;;5028483;28;20050;-84
2022/05/18 00:08:09;;;;;;;11.45;5.95;;;17.40;99.90;;;;;;5029284;28;20123;-83
2022/05/18 00:10:37;;;;;;;8.52;5.65;;;17.40;99.90;;;;;;5029613;28;20045;-83
2022/05/18 00:13:03;;;;;;;10.48;5.60;;;17.30;99.90;;;;;;5032956;28;20127;-80
2022/05/18 00:15:29;;;;;;;9.18;5.57;;;17.30;99.90;;;;;;5029529;28;20049;-82
2022/05/18 00:17:55;;;;;;;9.77;5.35;;;17.30;99.90;;;;;;5031823;28;20049;-84
2022/05/18 00:20:21;;;;;;;8.50;4.95;;;17.20;99.90;;;;;;5029834;28;20049;-84
2022/05/18 00:22:49;;;;;;;9.65;5.35;;;17.20;99.90;;;;;;5037914;28;20042;-83
2022/05/18 00:25:17;;;;;;;10.43;5.28;;;17.10;99.90;;;;;;5028607;28;20041;-83
2022/05/18 00:27:43;;;;;;;12.43;5.82;;;17.00;99.90;;;;;;5034142;28;20052;-82
2022/05/18 00:30:12;;;;;;;9.32;4.95;;;17.00;99.90;;;;;;5033689;28;20120;-81
2022/05/18 00:32:41;;;;;;;7.85;4.85;;;17.00;99.90;;;;;;5044370;28;20072;-83
2022/05/18 00:35:08;;;;;;;10.18;5.03;;;17.00;99.90;;;;;;5066891;28;20045;-83
2022/05/18 00:37:33;;;;;;;8.73;5.78;;;17.00;99.90;;;;;;5042643;28;20064;-83
2022/05/18 00:39:59;;;;;;;11.05;5.45;;;16.90;99.90;;;;;;5031365;28;20400;-81
2022/05/18 00:42:27;;;;;;;9.35;5.53;;;16.90;99.90;;;;;;5027208;28;20099;-83
2022/05/18 00:44:53;;;;;;;9.65;5.60;;;16.80;99.90;;;;;;5065639;28;20037;-83
2022/05/18 00:47:20;;;;;;;10.65;4.95;;;16.80;99.90;;;;;;5026831;28;20044;-83
2022/05/18 00:49:53;;;;;;;9.95;5.25;;;16.80;99.90;;;;;;5033317;28;20045;-82
2022/05/18 00:52:23;;;;;;;9.53;4.93;;;16.70;99.90;;;;;;5030388;28;20115;-81
2022/05/18 00:54:51;;;;;;;8.02;5.00;;;16.70;99.90;;;;;;5032891;28;20067;-82
2022/05/18 00:57:28;;;;;;;8.98;4.85;;;16.70;99.90;;;;;;5025939;28;20754;-81
2022/05/18 00:59:58;;;;;;;8.77;4.88;;;16.60;99.90;;;;;;5028626;28;20045;-82
2022/05/18 01:02:29;;;;;;;11.35;4.95;;;16.60;99.90;;;;;;5046816;28;20136;-83
2022/05/18 01:04:58;;;;;;;7.07;4.25;;;16.60;99.90;;;;;;5031316;28;20123;-82
2022/05/18 01:07:36;;;;;;;9.80;5.00;;;16.50;99.90;;;;;;5028166;28;20048;-82
2022/05/18 01:10:06;;;;;;;8.50;5.18;;;16.50;99.90;;;;;;5028994;28;20121;-82
2022/05/18 01:12:32;;;;;;;8.90;4.97;;;16.40;99.90;;;;;;5026648;28;20382;-82
2022/05/18 01:15:07;;;;;;;9.00;5.38;;;16.40;99.90;;;;;;5032357;28;20103;-81
2022/05/18 01:17:38;;;;;;;8.60;4.50;;;16.40;99.90;;;;;;5028340;28;20136;-82
2022/05/18 01:20:28;;;;;;;8.68;4.70;;;16.40;99.90;;;;;;5025535;28;20129;-82
2022/05/18 01:23:16;;;;;;;10.10;4.75;;;16.30;99.90;;;;;;5021930;28;20080;-81
2022/05/18 01:26:04;;;;;;;9.13;5.18;;;16.30;99.90;;;;;;5029477;28;20092;-82
2022/05/18 01:28:35;;;;;;;7.47;4.82;;;16.20;99.90;;;;;;5031017;28;20049;-82
2022/05/18 01:31:04;;;;;;;8.05;4.45;;;16.20;99.90;;;;;;5059952;28;20183;-82
2022/05/18 01:33:31;;;;;;;8.73;5.05;;;16.20;99.90;;;;;;5029547;28;20085;-80
2022/05/18 01:35:57;;;;;;;9.20;4.47;;;16.10;99.90;;;;;;5027686;28;20037;-82
2022/05/18 01:38:22;;;;;;;10.15;5.38;;;16.10;99.90;;;;;;5028484;28;20049;-82
2022/05/18 01:41:04;;;;;;;12.05;5.05;;;16.10;99.90;;;;;;5028738;28;20489;-82
2022/05/18 01:43:38;;;;;;;8.38;5.20;;;16.00;99.90;;;;;;5028718;28;22561;-82
2022/05/18 01:46:07;;;;;;;12.90;5.30;;;16.00;99.90;;;;;;5023341;28;20052;-82
2022/05/18 01:48:39;;;;;;;10.13;5.43;;;16.00;99.90;;;;;;5028406;28;20489;-83
2022/05/18 01:51:06;;;;;;;8.75;5.03;;;16.00;99.90;;;;;;5062722;28;20061;-81
2022/05/18 01:53:33;;;;;;;11.05;5.63;;;15.90;99.90;;;;;;5034198;28;20045;-82
2022/05/18 01:55:59;;;;;;;9.70;5.28;;;15.90;99.90;;;;;;5029087;28;20059;-81
2022/05/18 01:58:25;;;;;;;9.52;5.22;;;15.90;99.90;;;;;;5030034;28;20611;-81
2022/05/18 02:00:51;;;;;;;10.43;5.47;;;15.90;99.90;;;;;;5027729;28;20421;-81
2022/05/18 02:03:18;;;;;;;10.52;4.97;;;15.80;99.90;;;;;;5028857;28;20118;-82
2022/05/18 02:05:44;;;;;;;7.93;5.22;;;15.80;99.90;;;;;;5026215;28;20045;-82
2022/05/18 02:08:11;;;;;;;10.40;5.00;;;15.80;99.90;;;;;;5028554;28;20396;-81
2022/05/18 02:10:39;;;;;;;8.88;5.55;;;15.80;99.90;;;;;;5022320;28;20056;-82
2022/05/18 02:13:05;;;;;;;8.93;5.25;;;15.80;99.90;;;;;;5030726;28;20398;-82
2022/05/18 02:15:31;;;;;;;9.00;4.95;;;15.70;99.90;;;;;;5029754;28;20037;-82
2022/05/18 02:17:57;;;;;;;8.75;5.32;;;15.70;99.90;;;;;;5029420;28;20439;-81
2022/05/18 02:20:24;;;;;;;7.95;5.45;;;15.70;99.90;;;;;;5026431;28;20354;-82
2022/05/18 02:22:51;;;;;;;10.43;6.05;;;15.70;99.90;;;;;;5027161;28;20057;-81
2022/05/18 02:25:18;;;;;;;8.75;5.15;;;15.60;99.90;;;;;;5024476;28;20077;-82
2022/05/18 02:27:44;;;;;;;10.68;5.78;;;15.60;99.90;;;;;;5027116;28;20044;-82
2022/05/18 02:30:10;;;;;;;9.68;5.70;;;15.60;99.90;;;;;;5028302;28;20041;-80
2022/05/18 02:32:35;;;;;;;8.40;5.38;;;15.60;99.90;;;;;;5029026;28;20566;-81
2022/05/18 02:35:01;;;;;;;9.55;5.65;;;15.60;99.90;;;;;;5059165;28;20054;-82
2022/05/18 02:37:27;;;;;;;9.10;5.05;;;15.50;99.90;;;;;;5025853;28;20049;-82
2022/05/18 02:39:53;;;;;;;8.60;5.70;;;15.50;99.90;;;;;;5027731;28;20045;-81
2022/05/18 02:42:18;;;;;;;10.13;5.93;;;15.50;99.90;;;;;;5045525;28;20539;-81
2022/05/18 02:44:44;;;;;;;9.90;5.47;;;15.50;99.90;;;;;;5028175;28;20049;-82
2022/05/18 02:47:10;;;;;;;9.38;5.70;;;15.40;99.90;;;;;;5027776;28;20153;-81
2022/05/18 02:49:35;;;;;;;9.63;5.53;;;15.40;99.90;;;;;;5030351;28;20037;-80
2022/05/18 02:52:01;;;;;;;10.18;5.50;;;15.40;99.90;;;;;;5030886;28;20136;-80
2022/05/18 02:57:11;;;;;;;8.63;5.57;;;15.30;99.90;;;;;;5031219;28;20041;-81
2022/05/18 02:59:36;;;;;;;9.70;5.40;;;15.30;99.90;;;;;;5032642;28;20324;-82
2022/05/18 03:02:03;;;;;;;10.23;5.28;;;15.30;99.90;;;;;;5034552;28;20056;-81
2022/05/18 03:04:32;;;;;;;10.73;5.78;;;15.30;99.90;;;;;;5032591;28;20515;-81
2022/05/18 03:07:01;;;;;;;9.23;5.50;;;15.20;99.90;;;;;;5031220;28;20056;-81
2022/05/18 03:09:27;;;;;;;10.98;5.80;;;15.20;99.90;;;;;;5030822;28;20049;-80
2022/05/18 03:11:52;;;;;;;11.00;5.90;;;15.20;99.90;;;;;;5032225;28;20042;-81
2022/05/18 03:14:19;;;;;;;9.07;5.55;;;15.20;99.90;;;;;;5030513;28;20137;-81
2022/05/18 03:16:45;;;;;;;8.73;5.47;;;15.20;99.90;;;;;;5031175;28;20049;-80
2022/05/18 03:19:13;;;;;;;10.60;6.47;;;15.10;99.90;;;;;;5031391;28;20033;-81
2022/05/18 03:24:24;;;;;;;9.80;5.32;;;15.10;99.90;;;;;;5027106;28;20084;-80
2022/05/18 03:26:50;;;;;;;10.00;5.55;;;15.10;99.90;;;;;;5029597;28;20108;-81
2022/05/18 03:29:17;;;;;;;8.40;5.90;;;15.10;99.90;;;;;;5062680;28;20041;-80
2022/05/18 03:31:44;;;;;;;7.80;5.57;;;15.00;99.90;;;;;;5032189;28;20057;-79
2022/05/18 03:34:10;;;;;;;10.40;5.53;;;15.00;99.90;;;;;;5029855;28;20053;-80
2022/05/18 03:36:36;;;;;;;9.88;5.63;;;15.00;99.90;;;;;;5029891;28;20041;-81
2022/05/18 03:39:06;;;;;;;8.23;5.35;;;15.00;99.90;;;;;;5028035;28;20382;-81
2022/05/18 03:41:34;;;;;;;10.63;6.10;;;15.00;99.90;;;;;;5023618;28;20175;-81
2022/05/18 03:44:01;;;;;;;9.48;6.15;;;15.00;99.90;;;;;;5028823;28;20394;-81
2022/05/18 03:46:26;;;;;;;10.52;5.40;;;14.90;99.90;;;;;;5026119;28;20053;-80
2022/05/18 03:48:52;;;;;;;9.82;5.82;;;14.90;99.90;;;;;;5028398;28;20053;-81
2022/05/18 03:51:18;;;;;;;9.68;5.88;;;14.90;99.90;;;;;;5029264;28;20033;-80
2022/05/18 03:53:43;;;;;;;8.18;5.53;;;14.90;99.90;;;;;;5026761;28;20515;-80
2022/05/18 03:56:10;;;;;;;10.80;6.25;;;14.90;99.90;;;;;;5027998;28;20087;-81
2022/05/18 03:58:36;;;;;;;10.10;6.72;;;14.90;99.90;;;;;;5028631;28;20045;-80
2022/05/18 04:01:08;;;;;;;9.93;5.95;;;14.90;99.90;;;;;;5031392;28;20045;-80
2022/05/18 04:03:35;;;;;;;14.45;6.85;;;14.90;99.90;;;;;;5026375;28;20053;-81
2022/05/18 04:06:02;;;;;;;11.25;6.28;;;14.90;99.90;;;;;;5032527;28;20057;-79
2022/05/18 04:08:27;;;;;;;16.70;7.07;;;14.90;99.90;;;;;;5029121;28;20511;-80
2022/05/18 04:10:54;;;;;;;10.63;6.40;;;14.90;99.90;;;;;;5031572;28;20045;-80
2022/05/18 04:13:24;;;;;;;12.98;6.18;;;14.90;99.90;;;;;;5032628;28;20044;-80
2022/05/18 04:15:51;;;;;;;8.93;6.15;;;14.90;99.90;;;;;;5032013;28;20045;-80
2022/05/18 04:18:17;;;;;;;10.98;6.53;;;14.90;99.90;;;;;;5044149;28;20053;-80
2022/05/18 04:20:43;;;;;;;8.98;6.53;;;14.90;99.90;;;;;;5027469;28;20456;-79
2022/05/18 04:23:10;;;;;;;11.00;7.28;;;14.90;99.90;;;;;;5022431;28;20497;-78
2022/05/18 04:25:37;;;;;;;12.43;6.97;;;14.90;99.90;;;;;;5025301;28;20125;-81
2022/05/18 04:28:03;;;;;;;11.93;6.55;;;14.90;99.90;;;;;;5023383;28;20049;-79
2022/05/18 04:30:29;;;;;;;10.00;6.30;;;14.90;99.90;;;;;;5023330;28;20396;-80
2022/05/18 04:32:55;;;;;;;8.77;6.32;;;15.00;99.90;;;;;;5027659;28;20045;-80
2022/05/18 04:35:23;;;;;;;11.60;6.55;;;14.90;99.90;;;;;;5024535;28;20061;-80
2022/05/18 04:37:49;;;;;;;7.80;5.82;;;15.00;99.90;;;;;;5026294;28;20557;-80
2022/05/18 04:40:14;;;;;;;9.75;6.40;;;15.00;99.90;;;;;;5030044;28;20140;-78
2022/05/18 04:42:40;;;;;;;10.57;6.18;;;15.00;99.90;;;;;;5029893;28;20049;-80
2022/05/18 04:45:10;;;;;;;10.10;6.70;;;15.00;99.90;;;;;;5026374;28;20455;-79
2022/05/18 04:47:37;;;;;;;10.20;6.57;;;15.00;99.90;;;;;;5031889;28;20046;-80
2022/05/18 04:50:04;;;;;;;12.27;6.45;;;15.10;99.90;;;;;;5031735;28;20102;-81
2022/05/18 04:52:30;;;;;;;13.27;6.53;;;15.10;99.90;;;;;;5027917;28;20065;-81
2022/05/18 04:54:56;;;;;;;12.30;6.95;;;15.10;99.90;;;;;;5023356;28;20041;-80
2022/05/18 04:57:22;;;;;;;10.88;7.05;;;15.10;99.90;;;;;;5025365;28;20077;-81
2022/05/18 04:59:48;;;;;;;11.20;6.90;;;15.10;99.90;;;;;;5032042;28;20099;-80
2022/05/18 05:02:15;;;;;;;13.82;7.32;;;15.10;99.90;;;;;;5025332;28;20490;-80
2022/05/18 05:04:41;;;;;;;15.52;7.30;;;15.20;99.90;;;;;;5033274;28;20504;-81
2022/05/18 05:07:07;;;;;;;12.90;7.18;;;15.30;99.90;;;;;;5029457;28;20038;-81
2022/05/18 05:09:33;;;;;;;11.02;6.60;;;15.20;99.90;;;;;;5028758;28;20492;-81
2022/05/18 05:11:59;;;;;;;10.68;6.97;;;15.20;99.90;;;;;;5028542;28;20590;-80
2022/05/18 05:14:27;;;;;;;10.30;7.20;;;15.30;99.90;;;;;;5058111;28;20045;-80
2022/05/18 05:16:52;;;;;;;11.32;7.53;;;15.30;99.90;;;;;;5032418;28;20568;-81
2022/05/18 05:19:18;;;;;;;13.70;8.18;;;15.40;99.90;;;;;;5028055;28;20125;-78
2022/05/18 05:21:44;;;;;;;13.23;7.53;;;15.40;99.90;;;;;;5027676;28;20045;-78
2022/05/18 05:24:14;;;;;;;11.50;7.47;;;15.50;99.90;;;;;;5025647;28;20116;-79
2022/05/18 05:26:41;;;;;;;10.52;7.70;;;15.60;99.90;;;;;;5025833;28;20132;-79
2022/05/18 05:29:07;;;;;;;14.93;8.82;;;15.70;99.90;;;;;;5027173;28;20044;-78
2022/05/18 05:31:33;;;;;;;12.52;8.40;;;15.80;99.90;;;;;;5027416;28;20061;-79
2022/05/18 05:33:59;;;;;;;16.77;8.90;;;15.90;99.90;;;;;;5051641;28;20053;-80
2022/05/18 05:36:28;;;;;;;15.15;8.73;;;16.00;99.90;;;;;;5023828;28;20116;-79
2022/05/18 05:38:54;;;;;;;13.30;8.55;;;16.10;99.90;;;;;;5040955;28;20128;-80
2022/05/18 05:41:21;;;;;;;14.65;8.68;;;16.20;99.90;;;;;;5029621;28;20108;-80
2022/05/18 05:43:47;;;;;;;12.48;7.95;;;16.20;99.90;;;;;;5032871;28;20833;-80
2022/05/18 05:46:17;;;;;;;12.75;8.27;;;16.30;99.90;;;;;;5027417;28;20129;-79
2022/05/18 05:48:44;;;;;;;12.63;8.25;;;16.40;99.90;;;;;;5027706;28;20045;-78
2022/05/18 05:51:13;;;;;;;13.02;8.38;;;16.40;99.90;;;;;;5023996;28;20455;-77
2022/05/18 05:53:40;;;;;;;13.73;8.48;;;16.50;99.90;;;;;;5030917;28;20132;-80
2022/05/18 05:56:07;;;;;;;17.45;9.25;;;16.50;99.90;;;;;;5026579;28;20077;-79
2022/05/18 05:58:34;;;;;;;14.05;8.70;;;16.60;99.90;;;;;;5029743;28;20504;-80
2022/05/18 06:01:05;;;;;;;12.85;9.10;;;16.70;99.90;;;;;;5030214;28;20086;-79
2022/05/18 06:03:33;;;;;;;11.65;8.57;;;16.70;99.90;;;;;;5028817;28;20115;-79
2022/05/18 06:05:59;;;;;;;13.25;8.88;;;16.80;99.90;;;;;;5027363;28;20049;-79
2022/05/18 06:08:25;;;;;;;14.55;8.80;;;16.90;99.90;;;;;;5032908;28;20097;-78
2022/05/18 06:10:51;;;;;;;11.60;8.23;;;16.90;99.90;;;;;;5037042;28;20562;-80
2022/05/18 06:13:18;;;;;;;12.90;9.90;;;16.90;99.90;;;;;;5032285;28;20033;-87
2022/05/18 06:15:44;;;;;;;14.05;9.52;;;17.00;99.90;;;;;;5036175;28;20076;-82
2022/05/18 06:18:11;;;;;;;13.68;9.27;;;17.00;99.90;;;;;;5039929;28;20038;-86
2022/05/18 06:20:37;;;;;;;15.45;10.15;;;17.00;99.90;;;;;;5041369;28;20511;-81
2022/05/18 06:23:07;;;;;;;12.27;8.57;;;17.10;99.90;;;;;;5030137;28;20033;-81
2022/05/18 06:25:33;;;;;;;12.00;9.25;;;17.10;99.90;;;;;;5033707;28;20045;-79
2022/05/18 06:27:59;;;;;;;16.88;10.48;;;17.20;99.90;;;;;;5033291;28;20476;-78
2022/05/18 06:30:26;;;;;;;14.90;9.55;;;17.20;99.90;;;;;;5027577;28;20063;-78
2022/05/18 06:32:53;;;;;;;13.55;10.05;;;17.30;99.90;;;;;;5054922;28;20539;-78
2022/05/18 06:35:19;;;;;;;16.33;9.40;;;17.30;99.90;;;;;;5027670;28;20049;-78
2022/05/18 06:37:45;;;;;;;15.95;8.90;;;17.40;99.90;;;;;;5056776;28;20077;-78
2022/05/18 06:40:11;;;;;;;14.43;9.43;;;17.40;99.90;;;;;;5029111;28;20138;-78
2022/05/18 06:42:38;;;;;;;16.23;10.50;;;17.50;99.90;;;;;;5028789;28;20075;-79
2022/05/18 06:45:05;;;;;;;16.55;10.30;;;17.60;99.90;;;;;;5026852;28;20123;-79
2022/05/18 06:47:31;;;;;;;14.57;10.60;;;17.60;99.90;;;;;;5030220;28;20034;-79
2022/05/18 06:49:57;;;;;;;14.52;9.38;;;17.70;99.90;;;;;;5033086;28;20944;-79
2022/05/18 06:52:24;;;;;;;16.80;10.60;;;17.70;99.90;;;;;;5032812;28;20049;-79
2022/05/18 06:54:50;;;;;;;14.98;10.05;;;17.80;99.90;;;;;;5031361;28;20046;-79
2022/05/18 06:57:18;;;;;;;13.23;9.85;;;17.90;99.90;;;;;;5031411;28;20080;-78
2022/05/18 06:59:44;;;;;;;15.05;9.98;;;17.90;99.90;;;;;;5028752;28;20497;-79
2022/05/18 07:02:10;;;;;;;12.48;9.38;;;17.90;99.90;;;;;;5030048;28;20069;-78
2022/05/18 07:04:35;;;;;;;11.70;9.05;;;18.00;99.90;;;;;;5027780;28;20107;-79
2022/05/18 07:07:02;;;;;;;14.43;9.60;;;18.10;99.90;;;;;;5033511;28;20049;-78
2022/05/18 07:09:29;;;;;;;12.63;9.20;;;18.30;99.90;;;;;;5031693;28;20045;-79
2022/05/18 07:11:55;;;;;;;17.02;9.43;;;18.50;99.90;;;;;;5032544;28;20860;-78
2022/05/18 07:14:23;;;;;;;11.98;8.50;;;18.90;99.90;;;;;;5029187;28;20041;-79
2022/05/18 07:16:49;;;;;;;11.93;8.45;;;19.20;99.90;;;;;;5028919;28;20118;-80
2022/05/18 07:19:16;;;;;;;13.02;8.65;;;19.60;99.90;;;;;;5031879;28;20072;-78
2022/05/18 07:21:42;;;;;;;12.32;7.97;;;19.90;99.90;;;;;;5031805;28;20041;-80
2022/05/18 07:24:08;;;;;;;12.32;7.78;;;20.10;99.90;;;;;;5025167;28;20084;-80
2022/05/18 07:26:34;;;;;;;10.98;7.75;;;20.40;99.90;;;;;;5058170;28;20128;-79
2022/05/18 07:29:02;;;;;;;11.98;8.93;;;20.60;99.90;;;;;;5028927;28;20598;-79
2022/05/18 07:31:29;;;;;;;12.38;7.80;;;20.90;99.90;;;;;;5025623;28;20061;-80
2022/05/18 07:33:55;;;;;;;12.73;7.35;;;21.10;99.90;;;;;;5022031;28;20128;-79
2022/05/18 07:36:21;;;;;;;11.98;7.85;;;21.30;99.90;;;;;;5025850;28;20128;-78
2022/05/18 07:38:47;;;;;;;9.77;7.35;;;21.40;99.90;;;;;;5034844;28;20152;-78
2022/05/18 07:41:14;;;;;;;9.45;6.05;;;21.60;99.90;;;;;;5028140;28;20132;-78
2022/05/18 07:43:41;;;;;;;8.85;6.40;;;21.80;99.90;;;;;;5030445;28;20080;-78
2022/05/18 07:46:08;;;;;;;11.38;6.25;;;21.90;99.90;;;;;;5024540;28;20046;-78
2022/05/18 07:48:35;;;;;;;12.02;7.18;;;22.10;99.90;;;;;;5022638;28;20054;-78
2022/05/18 07:51:02;;;;;;;13.63;7.07;;;22.20;99.90;;;;;;5028462;28;20053;-78
2022/05/18 07:53:27;;;;;;;10.52;6.75;;;22.30;99.90;;;;;;5028853;28;20030;-78
2022/05/18 07:55:56;;;;;;;10.57;6.57;;;22.40;99.90;;;;;;5023891;28;20102;-80
2022/05/18 07:58:22;;;;;;;9.75;6.88;;;22.50;99.90;;;;;;5027502;28;20061;-79
2022/05/18 08:00:48;;;;;;;12.77;7.68;;;22.60;99.90;;;;;;5021280;28;20044;-79
2022/05/18 08:03:15;;;;;;;9.63;7.38;;;22.80;99.90;;;;;;5032209;28;20041;-79
2022/05/18 08:05:45;;;;;;;11.68;7.53;;;22.80;99.90;;;;;;5031070;28;20057;-79
2022/05/18 08:08:17;;;;;;;14.55;7.32;;;22.80;99.90;;;;;;5028268;28;20045;-79
2022/05/18 08:16:15;;;;;;;8.43;6.40;;;23.10;99.90;;;;;;5014167;28;20045;-80
2022/05/18 08:18:42;;;;;;;10.88;5.95;;;23.20;99.90;;;;;;5019989;28;20057;-80
2022/05/18 08:21:07;;;;;;;8.60;6.45;;;23.30;99.90;;;;;;5024042;28;20562;-80
2022/05/18 08:23:33;;;;;;;8.50;5.45;;;23.40;99.90;;;;;;5019333;28;20128;-81
2022/05/18 08:26:01;;;;;;;9.93;5.13;;;23.50;99.90;;;;;;5026612;28;20072;-80
2022/05/18 08:28:27;;;;;;;9.35;4.97;;;23.60;99.90;;;;;;5025629;28;20488;-83
2022/05/18 08:30:54;;;;;;;8.32;4.20;;;23.70;99.90;;;;;;5026393;28;20053;-83
2022/05/18 08:33:20;;;;;;;7.88;3.72;;;23.70;99.90;;;;;;5024960;28;20064;-83
2022/05/18 08:35:47;;;;;;;6.78;3.80;;;23.90;99.90;;;;;;5027125;28;20111;-83
2022/05/18 08:38:14;;;;;;;6.70;3.95;;;23.90;99.90;;;;;;5025777;28;20037;-83
2022/05/18 08:40:54;;;;;;;7.63;4.13;;;24.10;99.90;;;;;;5020752;28;20489;-83
2022/05/18 08:43:28;;;;;;;10.25;4.20;;;24.10;99.90;;;;;;5018554;28;20045;-83
2022/05/18 08:46:09;;;;;;;8.65;3.63;;;24.30;99.90;;;;;;5026747;28;20132;-83
2022/05/18 08:48:43;;;;;;;11.93;4.80;;;24.30;99.90;;;;;;5022642;28;20037;-83
2022/05/18 08:51:48;;;;;;;8.75;5.60;;;24.50;99.90;;;;;;5020677;28;20496;-83
2022/05/18 08:54:23;;;;;;;12.20;5.90;;;24.60;99.90;;;;;;5001562;28;20069;-83
2022/05/18 08:56:52;;;;;;;7.70;4.75;;;24.70;99.90;;;;;;5026212;28;20049;-82
2022/05/18 08:59:25;;;;;;;9.13;4.50;;;24.70;99.50;;;;;;5018894;28;20046;-80
2022/05/18 09:01:54;;;;;;;11.65;5.28;;;24.90;98.60;;;;;;5028295;28;20041;-82
2022/05/18 09:04:33;;;;;;;8.15;4.75;;;25.00;98.70;;;;;;5025968;28;20042;-81
2022/05/18 09:07:02;;;;;;;11.93;5.80;;;25.10;98.50;;;;;;5022817;28;20096;-85
2022/05/18 09:12:25;;;;;;;9.60;5.22;;;25.30;97.90;;;;;;5025613;28;20487;-86
2022/05/18 09:14:52;;;;;;;10.27;5.00;;;25.40;97.70;;;;;;5029460;28;20152;-83
2022/05/18 09:17:35;;;;;;;14.68;4.88;;;25.40;97.30;;;;;;5028433;28;20033;-83
2022/05/18 09:20:40;;;;;;;14.05;5.28;;;25.50;97.50;;;;;;5025816;28;20038;-85
2022/05/18 09:23:24;;;;;;;8.43;5.93;;;25.60;96.70;;;;;;4977541;28;20050;-79
2022/05/18 09:26:02;;;;;;;9.60;5.32;;;25.70;95.60;;;;;;5024971;28;20049;-86
2022/05/18 09:28:42;;;;;;;17.80;5.18;;;25.70;96.50;;;;;;5027616;28;20966;-87
2022/05/18 09:31:29;;;;;;;10.18;6.13;;;25.80;96.70;;;;;;5033027;28;20052;-88
2022/05/18 09:34:19;;;;;;;11.57;5.45;;;25.90;96.50;;;;;;5023450;28;20099;-86
2022/05/18 09:37:06;;;;;;;14.18;6.43;;;26.10;96.00;;;;;;5025179;28;20037;-88
2022/05/18 09:39:37;;;;;;;12.52;5.18;;;26.10;95.80;;;;;;5054149;28;20128;-87
2022/05/18 09:42:08;;;;;;;10.60;4.30;;;26.20;95.90;;;;;;5040890;28;20046;-84
2022/05/18 09:44:53;;;;;;;7.90;4.07;;;26.30;95.30;;;;;;5027894;28;20052;-84
2022/05/18 09:47:22;;;;;;;12.55;3.80;;;26.40;94.70;;;;;;5029352;28;20077;-82
2022/05/18 09:49:54;;;;;;;8.80;3.90;;;26.50;95.10;;;;;;5024594;28;20041;-82
2022/05/18 09:52:24;;;;;;;8.32;4.40;;;26.60;95.10;;;;;;5026166;28;20894;-81
2022/05/18 09:54:53;;;;;;;8.35;4.13;;;26.70;94.80;;;;;;5027091;28;20133;-81
2022/05/18 09:57:32;;;;;;;9.05;4.75;;;26.80;95.00;;;;;;5026214;28;20049;-82
2022/05/18 10:00:26;;;;;;;10.57;3.92;;;26.90;95.00;;;;;;5029662;28;20069;-83
2022/05/18 10:08:36;;;;;;;9.07;4.15;;;27.10;94.50;;;;;;5041422;28;20053;-79
2022/05/18 10:11:18;;;;;;;7.38;3.20;;;27.30;94.80;;;;;;5034189;28;20563;-80
2022/05/18 10:14:29;;;;;;;9.82;4.00;;;27.40;93.90;;;;;;5014748;28;20448;-79
2022/05/18 10:17:09;;;;;;;8.32;3.83;;;27.50;93.40;;;;;;4973982;28;20061;-79
2022/05/18 10:19:52;;;;;;;7.13;3.40;;;27.60;93.60;;;;;;5020544;28;20065;-81
2022/05/18 10:22:23;;;;;;;10.97;3.90;;;27.70;93.20;;;;;;5027713;28;20042;-80
2022/05/18 10:25:13;;;;;;;8.40;3.45;;;27.80;92.80;;;;;;5024342;28;20044;-80
2022/05/18 10:27:42;;;;;;;9.75;3.75;;;27.80;92.00;;;;;;5032703;28;20153;-80
2022/05/18 10:30:15;;;;;;;8.30;3.45;;;27.80;92.60;;;;;;5029094;28;20116;-79
2022/05/18 10:33:01;;;;;;;10.50;3.53;;;27.90;91.90;;;;;;5031111;28;20044;-80
2022/05/18 10:35:37;;;;;;;11.05;4.68;;;27.90;91.40;;;;;;5024133;28;20493;-79
2022/05/18 10:38:34;;;;;;;11.00;3.90;;;27.90;91.60;;;;;;5016536;28;20546;-79
2022/05/18 10:41:26;;;;;;;11.43;4.38;;;28.00;92.00;;;;;;5029541;28;20057;-78
2022/05/18 10:43:54;;;;;;;8.25;3.65;;;28.10;91.70;;;;;;5004945;28;20500;-79
2022/05/18 10:46:32;;;;;;;9.52;5.10;;;28.20;91.90;;;;;;5029963;28;20052;-79
2022/05/18 10:49:08;;;;;;;7.22;3.78;;;28.30;91.20;;;;;;5033700;28;20045;-78
2022/05/18 10:51:45;;;;;;;12.15;6.30;;;28.30;91.70;;;;;;5016830;28;20055;-78
2022/05/18 10:54:25;;;;;;;10.57;4.78;;;28.30;91.50;;;;;;5028524;28;20611;-78
2022/05/18 10:56:53;;;;;;;9.38;5.03;;;28.30;91.50;;;;;;4995476;28;20123;-78
2022/05/18 10:59:32;;;;;;;11.73;5.05;;;28.30;92.00;;;;;;5003011;28;20049;-78
2022/05/18 11:02:08;;;;;;;10.68;5.00;;;28.40;92.00;;;;;;5033147;28;20128;-78
2022/05/18 11:04:50;;;;;;;11.10;5.40;;;28.60;92.20;;;;;;5012404;28;20056;-78
2022/05/18 11:07:18;;;;;;;11.07;6.75;;;28.70;91.70;;;;;;5023177;28;20049;-79
2022/05/18 11:09:44;;;;;;;9.68;6.30;;;28.70;91.50;;;;;;5030596;28;20053;-77
2022/05/18 11:12:35;;;;;;;9.38;6.05;;;28.70;91.50;;;;;;5029058;28;20048;-80
2022/05/18 11:15:26;;;;;;;14.73;5.95;;;28.70;90.70;;;;;;5018580;28;20378;-82
2022/05/18 11:18:16;;;;;;;12.77;6.78;;;28.70;90.80;;;;;;5024244;28;20053;-80
2022/05/18 11:20:57;;;;;;;13.45;6.93;;;28.80;91.20;;;;;;5013029;28;20566;-82
2022/05/18 11:23:34;;;;;;;9.57;6.32;;;28.80;90.70;;;;;;5008935;28;20049;-82
2022/05/18 11:26:28;;;;;;;11.70;6.15;;;28.70;90.70;;;;;;5013940;28;20053;-82
2022/05/18 11:29:09;;;;;;;11.35;7.10;;;28.70;90.60;;;;;;5032160;28;20049;-81
2022/05/18 11:32:22;;;;;;;14.25;6.53;;;28.80;90.80;;;;;;5024367;28;20085;-81
2022/05/18 11:35:18;;;;;;;14.52;6.35;;;28.80;90.40;;;;;;4993931;28;20081;-81
2022/05/18 11:37:50;;;;;;;11.10;6.18;;;28.90;90.20;;;;;;5010163;28;20089;-81
2022/05/18 11:40:46;;;;;;;13.55;7.30;;;28.90;90.80;;;;;;5020810;28;20057;-82
2022/05/18 11:43:28;;;;;;;12.73;6.78;;;29.00;90.00;;;;;;5024571;28;20068;-82
2022/05/18 11:46:20;;;;;;;11.82;7.50;;;29.00;90.20;;;;;;5029456;28;20088;-81
2022/05/18 11:48:49;;;;;;;11.88;6.40;;;29.00;90.10;;;;;;5032681;28;20054;-81
2022/05/18 11:51:41;;;;;;;13.82;7.40;;;29.20;90.60;;;;;;5031884;28;20125;-81
2022/05/18 11:54:35;;;;;;;10.35;6.97;;;29.40;90.10;;;;;;5030561;28;20049;-81
2022/05/18 11:57:25;;;;;;;16.10;7.45;;;29.60;87.30;;;;;;5022783;28;20049;-81
2022/05/18 12:00:17;;;;;;;15.23;8.85;;;29.60;90.40;;;;;;5030545;28;20049;-81
2022/05/18 12:03:20;;;;;;;12.75;7.13;;;29.70;88.80;;;;;;5031950;28;20049;-81
2022/05/18 12:05:55;;;;;;;13.82;8.13;;;29.60;90.10;;;;;;5025094;28;20445;-81
2022/05/18 12:08:38;;;;;;;16.73;9.15;;;29.50;90.00;;;;;;5025246;28;20049;-80
2022/05/18 12:11:22;;;;;;;15.25;9.38;;;29.30;90.10;;;;;;5027738;28;20049;-81
2022/05/18 12:14:17;;;;;;;13.40;8.80;;;29.10;90.10;;;;;;5030256;28;20064;-81
2022/05/18 12:16:54;;;;;;;12.38;8.50;;;29.10;90.30;;;;;;5005827;28;20049;-80
2022/05/18 12:19:22;;;;;;;13.23;8.30;;;29.20;90.40;;;;;;5022228;28;20557;-80
2022/05/18 12:22:00;;;;;;;17.70;8.88;;;29.20;90.30;;;;;;5028031;28;20052;-80
2022/05/18 12:24:28;;;;;;;10.95;8.75;;;29.10;90.30;;;;;;5023551;28;20049;-80
2022/05/18 12:26:55;;;;;;;13.77;8.40;;;28.90;90.30;;;;;;5027672;28;20046;-80
2022/05/18 12:29:24;;;;;;;14.55;9.57;;;28.80;90.80;;;;;;5026791;28;20049;-80
2022/05/18 12:31:52;;;;;;;13.40;9.60;;;28.70;90.60;;;;;;5024881;28;20081;-77
2022/05/18 12:34:20;;;;;;;15.68;10.02;;;28.70;90.80;;;;;;5027990;28;20456;-78
2022/05/18 12:36:50;;;;;;;13.10;7.00;;;28.60;90.70;;;;;;5025329;28;20132;-77
2022/05/18 12:39:25;;;;;;;13.57;7.13;;;28.70;91.20;;;;;;5035859;28;21864;-78
2022/05/18 12:41:55;;;;;;;13.23;7.60;;;28.70;91.00;;;;;;5023127;28;20055;-77
2022/05/18 12:44:37;;;;;;;13.55;6.88;;;28.70;91.00;;;;;;5021886;28;20041;-76
2022/05/18 12:47:29;;;;;;;12.32;7.70;;;28.60;90.90;;;;;;5027473;28;20088;-80
2022/05/18 12:50:01;;;;;;;12.85;8.27;;;28.60;90.80;;;;;;5021920;28;20134;-78
2022/05/18 12:52:30;;;;;;;13.65;8.18;;;28.50;91.10;;;;;;5024333;28;20057;-79
2022/05/18 12:55:00;;;;;;;11.90;8.10;;;28.40;91.30;;;;;;5025825;28;20047;-79
2022/05/18 12:58:02;;;;;;;14.02;8.52;;;28.50;91.40;;;;;;5030007;28;20045;-79
2022/05/18 13:00:28;;;;;;;11.55;6.80;;;28.60;91.30;;;;;;5011426;28;20549;-79
2022/05/18 13:03:00;;;;;;;10.77;7.03;;;28.80;91.50;;;;;;5010841;28;20097;-79
2022/05/18 13:05:26;;;;;;;9.48;6.50;;;28.80;91.30;;;;;;5028646;28;20439;-79
2022/05/18 13:08:03;;;;;;;13.13;6.55;;;28.80;91.20;;;;;;5016319;28;20176;-79
2022/05/18 13:10:35;;;;;;;10.20;5.93;;;28.70;91.00;;;;;;5010579;28;20116;-79
2022/05/18 13:13:09;;;;;;;8.50;6.05;;;28.70;91.30;;;;;;5013881;28;20094;-79
2022/05/18 13:15:55;;;;;;;10.85;5.13;;;28.70;91.30;;;;;;5030792;28;20049;-79
2022/05/18 13:18:37;;;;;;;8.48;4.50;;;28.70;91.40;;;;;;5029822;28;20404;-79
2022/05/18 13:21:22;;;;;;;13.70;4.05;;;28.60;90.80;;;;;;5039346;28;20045;-79